Time;durP1;ratioP1;P1;durP2;ratioP2;P2;SDS_P1;SDS_P2;PMS_P1;PMS_P2;Temp;Humidity;BMP_temperature;BMP_pressure;BME280_temperature;BME280_humidity;BME280_pressure;Samples;Min_cycle;Max_cycle;Signal;HPM_P1;HPM_P2
2023/05/11 00:01:11;;;;;;;70.80;27.08;;;;;;;11.10;100.00;101415.53;5051620;28;20029;-76
2023/05/11 00:03:37;;;;;;;80.28;27.63;;;;;;;11.01;100.00;101401.72;5049566;28;20083;-76
2023/05/11 00:06:03;;;;;;;83.68;27.20;;;;;;;11.04;100.00;101415.63;5051704;28;20091;-76
2023/05/11 00:08:35;;;;;;;76.38;28.55;;;;;;;10.98;100.00;101412.22;5052783;28;20017;-76
2023/05/11 00:11:00;;;;;;;78.18;28.08;;;;;;;10.98;100.00;101407.00;5046660;28;20468;-76
2023/05/11 00:13:26;;;;;;;78.53;28.02;;;;;;;10.98;100.00;101411.34;5052544;28;20078;-76
2023/05/11 00:15:51;;;;;;;90.95;29.08;;;;;;;11.00;100.00;101407.00;5051634;28;20431;-76
2023/05/11 00:18:17;;;;;;;81.30;29.42;;;;;;;11.04;100.00;101407.78;5050587;28;20021;-76
2023/05/11 00:20:42;;;;;;;95.70;30.23;;;;;;;11.07;100.00;101399.91;5043697;28;20029;-75
2023/05/11 00:23:07;;;;;;;86.47;28.70;;;;;;;11.06;100.00;101390.38;5050277;28;20063;-75
2023/05/11 00:25:33;;;;;;;92.38;30.05;;;;;;;11.07;100.00;101389.47;5050601;28;20448;-76
2023/05/11 00:27:58;;;;;;;68.70;27.65;;;;;;;11.03;100.00;101399.13;5051102;28;20025;-76
2023/05/11 00:30:23;;;;;;;73.07;27.38;;;;;;;11.00;100.00;101405.22;5050250;28;20037;-75
2023/05/11 00:32:50;;;;;;;73.10;28.42;;;;;;;11.05;100.00;101412.13;5050594;28;20028;-75
2023/05/11 00:35:15;;;;;;;100.07;29.95;;;;;;;11.00;100.00;101409.59;5050857;28;20373;-76
2023/05/11 00:37:40;;;;;;;104.00;31.20;;;;;;;11.04;100.00;101411.25;5052968;28;20045;-76
2023/05/11 00:40:06;;;;;;;84.93;30.40;;;;;;;11.05;100.00;101415.59;5051672;28;20471;-75
2023/05/11 00:42:32;;;;;;;101.07;31.30;;;;;;;11.00;100.00;101407.84;5051248;28;20043;-75
2023/05/11 00:44:58;;;;;;;85.55;30.98;;;;;;;10.99;100.00;101408.75;5051220;28;20596;-76
2023/05/11 00:47:23;;;;;;;117.68;33.95;;;;;;;11.00;100.00;101415.66;5051013;28;20096;-76
2023/05/11 00:49:52;;;;;;;84.53;32.60;;;;;;;10.98;100.00;101417.44;5052036;28;20021;-75
2023/05/11 00:52:17;;;;;;;90.30;32.58;;;;;;;11.00;100.00;101415.66;5050911;28;20028;-75
2023/05/11 00:54:43;;;;;;;107.68;34.28;;;;;;;11.04;100.00;101420.84;5050934;28;20392;-76
2023/05/11 00:57:08;;;;;;;92.88;34.40;;;;;;;11.00;100.00;101415.66;5052403;28;20021;-76
2023/05/11 00:59:34;;;;;;;108.60;34.63;;;;;;;11.02;100.00;101411.31;5051968;28;20373;-76
2023/05/11 01:02:03;;;;;;;110.30;36.90;;;;;;;11.04;100.00;101426.91;5052541;28;20018;-76
2023/05/11 01:04:29;;;;;;;121.40;37.83;;;;;;;11.03;100.00;101425.19;5055735;28;20017;-75
2023/05/11 01:07:11;;;;;;;117.10;37.35;;;;;;;11.09;100.00;101424.25;5055088;28;20112;-75
2023/05/11 01:10:02;;;;;;;121.80;37.10;;;;;;;11.06;100.00;101417.31;5055372;28;20025;-75
2023/05/11 01:12:39;;;;;;;108.55;36.15;;;;;;;11.09;100.00;101424.25;5056183;28;20071;-76
2023/05/11 01:15:36;;;;;;;116.82;36.90;;;;;;;11.07;100.00;101415.56;5041713;28;20079;-76
2023/05/11 01:18:19;;;;;;;117.65;37.28;;;;;;;11.04;100.00;101421.69;5042904;28;20032;-76
2023/05/11 01:20:54;;;;;;;;;;;;;;;11.07;100.00;101418.19;5053955;28;20095;-76
2023/05/11 01:23:42;;;;;;;;;;;;;;;11.08;100.00;101417.28;5055230;28;19916;-75
2023/05/11 01:26:26;;;;;;;108.57;34.03;;;;;;;11.06;100.00;101426.91;5055766;28;19936;-75
2023/05/11 01:29:12;;;;;;;121.72;38.67;;;;;;;11.02;100.00;101428.72;5042011;28;20384;-75
2023/05/11 01:31:40;;;;;;;107.35;38.63;;;;;;;10.98;100.00;101427.00;5055599;28;20171;-75
2023/05/11 01:34:16;;;;;;;114.70;38.92;;;;;;;10.97;100.00;101422.69;5055810;28;20028;-75
2023/05/11 01:36:48;;;;;;;123.70;42.00;;;;;;;10.96;100.00;101429.66;5040136;28;20166;-76
2023/05/11 01:39:15;;;;;;;111.55;38.53;;;;;;;10.94;100.00;101420.13;5055767;28;20016;-76
2023/05/11 01:41:46;;;;;;;134.35;41.90;;;;;;;10.93;100.00;101429.69;5054917;28;20028;-77
2023/05/11 01:44:17;;;;;;;145.02;43.80;;;;;;;10.91;100.00;101423.63;5054680;28;20381;-77
2023/05/11 01:46:46;;;;;;;120.95;39.97;;;;;;;10.91;100.00;101422.78;5049219;28;20029;-77
2023/05/11 01:49:13;;;;;;;127.80;42.35;;;;;;;10.91;100.00;101423.63;5054695;28;20054;-77
2023/05/11 01:51:40;;;;;;;128.70;40.70;;;;;;;10.94;100.00;101420.97;5055025;28;20068;-77
2023/05/11 01:54:08;;;;;;;120.20;43.60;;;;;;;10.93;100.00;101426.25;5055171;28;20103;-77
2023/05/11 01:56:35;;;;;;;116.65;40.38;;;;;;;10.87;100.00;101414.16;5054700;28;20021;-77
2023/05/11 01:59:01;;;;;;;140.57;43.20;;;;;;;10.93;100.00;101424.50;5054676;28;20032;-77
2023/05/11 02:01:32;;;;;;;166.10;42.97;;;;;;;10.86;100.00;101419.41;5055260;28;20028;-77
2023/05/11 02:04:01;;;;;;;140.32;43.03;;;;;;;10.91;100.00;101425.38;5054153;28;20039;-77
2023/05/11 02:06:29;;;;;;;139.63;42.47;;;;;;;10.87;100.00;101426.34;5054955;28;20033;-77
2023/05/11 02:08:56;;;;;;;143.50;42.33;;;;;;;10.86;100.00;101425.47;5054794;28;20057;-77
2023/05/11 02:11:25;;;;;;;131.95;42.50;;;;;;;10.87;100.00;101424.56;5040422;28;20021;-77
2023/05/11 02:13:55;;;;;;;158.77;45.22;;;;;;;10.85;100.00;101423.72;5041565;28;20358;-76
2023/05/11 02:16:22;;;;;;;148.00;44.63;;;;;;;10.84;100.00;101418.56;5053959;28;20025;-76
2023/05/11 02:18:48;;;;;;;144.63;46.15;;;;;;;10.86;100.00;101416.78;5053607;28;20483;-76
2023/05/11 02:21:15;;;;;;;160.38;45.80;;;;;;;10.85;100.00;101409.81;5054462;28;20067;-76
2023/05/11 02:23:42;;;;;;;173.18;46.10;;;;;;;10.83;100.00;101414.22;5054634;28;20041;-76
2023/05/11 02:26:09;;;;;;;125.38;43.80;;;;;;;10.81;100.00;101419.44;5041711;28;20484;-76
2023/05/11 02:28:35;;;;;;;125.65;42.28;;;;;;;10.78;100.00;101414.28;5051929;28;20028;-76
2023/05/11 02:31:08;;;;;;;109.75;41.40;;;;;;;10.77;100.00;101417.78;5051625;28;20029;-76
2023/05/11 02:33:38;;;;;;;142.20;44.25;;;;;;;10.69;100.00;101404.88;5053280;28;20033;-76
2023/05/11 02:36:05;;;;;;;134.65;45.63;;;;;;;10.76;100.00;101416.94;5048297;28;20037;-76
2023/05/11 02:38:33;;;;;;;141.85;45.15;;;;;;;10.75;100.00;101423.00;5052446;28;20115;-76
2023/05/11 02:41:05;;;;;;;146.02;46.72;;;;;;;10.78;100.00;101419.50;5046039;28;20027;-76
2023/05/11 02:43:34;;;;;;;182.98;50.17;;;;;;;10.80;100.00;101417.72;5051832;28;20055;-76
2023/05/11 02:46:03;;;;;;;165.40;48.80;;;;;;;10.77;100.00;101412.56;5046658;28;20033;-76
2023/05/11 02:48:37;;;;;;;175.13;48.55;;;;;;;10.77;100.00;101417.78;5050773;28;20555;-76
2023/05/11 02:51:04;;;;;;;;;;;;;;;10.79;100.00;101410.81;5044259;28;20033;-76
2023/05/11 02:53:32;;;;;;;154.30;47.20;;;;;;;10.72;100.00;101417.84;5044923;28;19948;-76
2023/05/11 02:55:58;;;;;;;142.07;47.08;;;;;;;10.68;100.00;101417.91;5042569;28;20558;-76
2023/05/11 02:58:23;;;;;;;147.68;47.28;;;;;;;10.66;100.00;101410.13;5051191;28;20017;-76
2023/05/11 03:00:49;;;;;;;173.57;48.30;;;;;;;10.59;100.00;101410.22;5051665;28;20044;-76
2023/05/11 03:03:14;;;;;;;136.50;46.47;;;;;;;10.61;100.00;101426.72;5046292;28;20030;-75
2023/05/11 03:05:40;;;;;;;144.52;47.22;;;;;;;10.58;100.00;101413.72;5047626;28;20087;-76
2023/05/11 03:08:05;;;;;;;159.27;50.15;;;;;;;10.51;100.00;101426.84;5053259;28;20020;-75
2023/05/11 03:10:31;;;;;;;152.05;45.75;;;;;;;10.43;100.00;101418.28;5040719;28;20477;-75
2023/05/11 03:12:57;;;;;;;125.25;45.53;;;;;;;10.30;100.00;101420.19;5051208;28;20392;-75
2023/05/11 03:15:23;;;;;;;129.50;45.85;;;;;;;10.28;100.00;101426.28;5051795;28;20052;-76
2023/05/11 03:17:50;;;;;;;150.05;46.60;;;;;;;10.18;100.00;101427.25;5052211;28;20032;-76
2023/05/11 03:20:16;;;;;;;135.90;46.33;;;;;;;10.17;100.00;101433.31;5046153;28;20025;-76
2023/05/11 03:22:43;;;;;;;147.07;47.25;;;;;;;10.17;100.00;101431.63;5051522;28;20037;-75
2023/05/11 03:25:08;;;;;;;178.80;49.28;;;;;;;10.17;100.00;101430.72;5036759;28;20021;-75
2023/05/11 03:27:34;;;;;;;145.07;49.55;;;;;;;10.20;100.00;101438.50;5045248;28;20029;-75
2023/05/11 03:30:06;;;;;;;172.40;51.08;;;;;;;10.14;100.00;101422.97;5051191;28;20021;-75
2023/05/11 03:32:41;;;;;;;189.82;53.30;;;;;;;10.21;100.00;101435.03;5051185;28;20029;-75
2023/05/11 03:35:07;;;;;;;146.70;46.15;;;;;;;10.13;100.00;101424.69;5050554;28;20476;-75
2023/05/11 03:37:35;;;;;;;173.20;48.95;;;;;;;10.18;100.00;101427.25;5051515;28;20106;-75
2023/05/11 03:40:02;;;;;;;177.13;50.60;;;;;;;10.16;100.00;101435.06;5052206;28;20088;-75
2023/05/11 03:42:29;;;;;;;192.15;50.38;;;;;;;10.12;100.00;101427.31;5050049;28;20430;-75
2023/05/11 03:44:58;;;;;;;167.38;48.47;;;;;;;10.12;100.00;101422.97;5051744;28;20036;-75
2023/05/11 03:47:27;;;;;;;173.73;50.55;;;;;;;10.07;100.00;101425.66;5051989;28;20151;-76
2023/05/11 03:49:53;;;;;;;152.02;50.60;;;;;;;10.02;100.00;101427.44;5050500;28;20029;-76
2023/05/11 03:52:20;;;;;;;134.38;47.53;;;;;;;9.95;100.00;101423.19;5052501;28;20380;-75
2023/05/11 03:54:45;;;;;;;142.27;47.92;;;;;;;9.94;100.00;101431.88;5051691;28;20051;-75
2023/05/11 03:57:10;;;;;;;158.32;48.45;;;;;;;9.91;100.00;101421.50;5051314;28;20468;-75
2023/05/11 03:59:38;;;;;;;151.15;48.95;;;;;;;9.93;100.00;101426.69;5051238;28;20525;-75
2023/05/11 04:02:03;;;;;;;158.18;49.05;;;;;;;9.95;100.00;101420.56;5051258;28;20025;-75
2023/05/11 04:04:30;;;;;;;157.57;48.42;;;;;;;9.94;100.00;101426.69;5049644;28;20029;-75
2023/05/11 04:06:56;;;;;;;167.20;51.35;;;;;;;9.99;100.00;101424.00;5052583;28;20048;-75
2023/05/11 04:09:21;;;;;;;170.35;50.50;;;;;;;10.02;100.00;101427.44;5051494;28;20021;-75
2023/05/11 04:11:47;;;;;;;176.73;49.70;;;;;;;10.02;100.00;101416.16;5050617;28;20539;-75
2023/05/11 04:14:12;;;;;;;182.15;50.70;;;;;;;10.03;100.00;101418.72;5051020;28;20091;-75
2023/05/11 04:16:37;;;;;;;214.30;53.75;;;;;;;10.05;100.00;101411.78;5050994;28;20365;-75
2023/05/11 04:19:03;;;;;;;173.07;51.13;;;;;;;10.06;100.00;101421.28;5051858;28;20056;-75
2023/05/11 04:21:28;;;;;;;191.15;55.13;;;;;;;10.07;100.00;101423.03;5052365;28;20013;-75
2023/05/11 04:23:53;;;;;;;180.55;53.67;;;;;;;10.02;100.00;101417.00;5051678;28;20782;-75
2023/05/11 04:26:18;;;;;;;217.95;57.13;;;;;;;10.12;100.00;101422.13;5051929;28;20083;-75
2023/05/11 04:28:44;;;;;;;232.55;59.17;;;;;;;10.11;100.00;101428.22;5051036;28;20088;-75
2023/05/11 04:31:09;;;;;;;214.68;57.28;;;;;;;10.13;100.00;101426.44;5049591;28;20065;-75
2023/05/11 04:33:34;;;;;;;234.20;59.90;;;;;;;10.14;100.00;101429.03;5049308;28;20017;-75
2023/05/11 04:36:00;;;;;;;225.95;58.22;;;;;;;10.13;100.00;101423.84;5037235;28;20525;-75
2023/05/11 04:38:25;;;;;;;209.50;59.55;;;;;;;10.07;100.00;101422.16;5048961;28;20044;-75
2023/05/11 04:40:50;;;;;;;210.38;59.50;;;;;;;10.05;100.00;101435.22;5048355;28;20037;-75
2023/05/11 04:43:16;;;;;;;242.07;62.15;;;;;;;10.06;100.00;101431.72;5044891;28;20112;-76
2023/05/11 04:45:49;;;;;;;224.55;59.58;;;;;;;10.07;100.00;101435.19;5051022;28;20033;-75
2023/05/11 04:48:15;;;;;;;229.52;59.30;;;;;;;10.14;100.00;101428.19;5051253;28;20029;-75
2023/05/11 04:50:41;;;;;;;259.02;62.03;;;;;;;10.24;100.00;101432.41;5052095;28;20070;-75
2023/05/11 04:53:06;;;;;;;234.10;62.45;;;;;;;10.34;100.00;101435.78;5051491;28;20419;-75
2023/05/11 04:55:31;;;;;;;284.63;64.63;;;;;;;10.45;100.00;101437.34;5052300;28;20040;-75
2023/05/11 04:57:56;;;;;;;261.55;65.95;;;;;;;10.50;100.00;101442.50;5051961;28;20476;-75
2023/05/11 05:00:22;;;;;;;246.55;64.47;;;;;;;10.63;100.00;101453.63;5051494;28;20025;-75
2023/05/11 05:02:49;;;;;;;288.02;66.38;;;;;;;10.73;100.00;101453.47;5051815;28;20021;-75
2023/05/11 05:05:14;;;;;;;265.00;67.32;;;;;;;10.79;100.00;101447.31;5052110;28;20024;-75
2023/05/11 05:07:40;;;;;;;305.52;69.25;;;;;;;10.79;100.00;101452.53;5050943;28;20102;-75
2023/05/11 05:10:07;;;;;;;283.55;68.13;;;;;;;10.82;100.00;101452.47;5051910;28;20041;-75
2023/05/11 05:12:39;;;;;;;274.40;68.68;;;;;;;10.81;100.00;101450.75;5052073;28;20029;-75
2023/05/11 05:15:05;;;;;;;248.98;65.60;;;;;;;10.88;100.00;101457.59;5051664;28;20025;-75
2023/05/11 05:17:30;;;;;;;283.30;69.25;;;;;;;10.87;100.00;101455.03;5051715;28;20025;-75
2023/05/11 05:19:59;;;;;;;267.98;67.97;;;;;;;10.91;100.00;101467.13;5051205;28;20032;-75
2023/05/11 05:22:25;;;;;;;269.08;68.60;;;;;;;10.94;100.00;101473.16;5052090;28;20025;-75
2023/05/11 05:24:50;;;;;;;230.52;66.82;;;;;;;10.93;100.00;101463.63;5051411;28;20021;-75
2023/05/11 05:27:15;;;;;;;269.80;67.75;;;;;;;10.99;100.00;101471.34;5051564;28;20033;-75
2023/05/11 05:29:41;;;;;;;268.33;66.95;;;;;;;11.04;100.00;101460.84;5051656;28;20380;-75
2023/05/11 05:32:06;;;;;;;308.85;70.85;;;;;;;11.19;100.00;101478.88;5048206;28;20052;-75
2023/05/11 05:34:31;;;;;;;246.02;66.88;;;;;;;11.29;100.00;101469.16;5041274;28;20057;-75
2023/05/11 05:36:57;;;;;;;255.25;66.10;;;;;;;11.38;100.00;101469.00;5050377;28;20106;-75
2023/05/11 05:39:22;;;;;;;269.17;67.97;;;;;;;11.43;100.00;101477.59;5051365;28;20358;-75
2023/05/11 05:41:47;;;;;;;235.15;67.57;;;;;;;11.48;100.00;101481.00;5048690;28;20388;-75
2023/05/11 05:44:12;;;;;;;229.98;65.68;;;;;;;11.56;100.00;101475.63;5050671;28;20025;-75
2023/05/11 05:46:50;;;;;;;250.18;68.20;;;;;;;11.60;100.00;101477.31;5049980;28;20033;-75
2023/05/11 05:49:15;;;;;;;248.95;67.55;;;;;;;11.57;100.00;101468.66;5042193;28;20094;-75
2023/05/11 05:51:40;;;;;;;248.43;66.78;;;;;;;11.62;100.00;101478.16;5048671;28;20025;-75
2023/05/11 05:54:06;;;;;;;210.10;65.45;;;;;;;11.64;100.00;101480.72;5054280;28;20468;-75
2023/05/11 05:56:33;;;;;;;212.32;63.33;;;;;;;11.58;100.00;101476.50;5054720;28;20032;-75
2023/05/11 05:58:59;;;;;;;231.93;64.03;;;;;;;11.57;100.00;101484.34;5054903;28;20024;-75
2023/05/11 06:01:25;;;;;;;223.52;60.78;;;;;;;11.58;100.00;101489.53;5055323;28;20389;-75
2023/05/11 06:04:00;;;;;;;239.65;63.88;;;;;;;11.63;100.00;101484.22;5053899;28;20025;-75
2023/05/11 06:06:26;;;;;;;232.43;62.63;;;;;;;11.71;100.00;101488.44;5055031;28;20116;-75
2023/05/11 06:08:51;;;;;;;221.60;64.28;;;;;;;11.84;100.00;101489.13;5041695;28;20112;-75
2023/05/11 06:11:16;;;;;;;226.60;66.63;;;;;;;11.89;100.00;101497.72;5053481;28;20542;-75
2023/05/11 06:13:41;;;;;;;254.32;65.28;;;;;;;11.98;100.00;101488.84;5054530;28;20041;-75
2023/05/11 06:16:09;;;;;;;215.15;66.20;;;;;;;12.06;100.00;101501.75;5054580;28;20022;-75
2023/05/11 06:18:35;;;;;;;221.75;64.28;;;;;;;12.06;100.00;101502.63;5054882;28;20028;-75
2023/05/11 06:21:00;;;;;;;214.27;65.78;;;;;;;11.97;100.00;101504.53;5054192;28;20488;-75
2023/05/11 06:23:31;;;;;;;217.27;63.88;;;;;;;11.92;100.00;101497.66;5054093;28;20017;-75
2023/05/11 06:25:57;;;;;;;194.60;63.85;;;;;;;11.85;100.00;101495.19;5054336;28;20326;-75
2023/05/11 06:28:23;;;;;;;197.43;62.72;;;;;;;11.84;100.00;101502.19;5054826;28;20048;-75
2023/05/11 06:30:49;;;;;;;210.55;63.10;;;;;;;11.81;100.00;101507.44;5053610;28;20095;-75
2023/05/11 06:33:14;;;;;;;204.80;63.00;;;;;;;11.82;100.00;101501.31;5050447;28;20107;-75
2023/05/11 06:35:39;;;;;;;195.07;60.72;;;;;;;11.78;100.00;101504.88;5044632;28;20029;-75
2023/05/11 06:38:05;;;;;;;185.32;60.08;;;;;;;11.80;100.00;101502.22;5053255;28;20455;-75
2023/05/11 06:40:33;;;;;;;177.00;61.03;;;;;;;11.72;100.00;101505.81;5054620;28;20096;-75
2023/05/11 06:42:59;;;;;;;169.90;58.38;;;;;;;11.67;100.00;101506.78;5053876;28;20031;-75
2023/05/11 06:45:24;;;;;;;180.27;59.65;;;;;;;11.67;100.00;101506.78;5053475;28;20033;-75
2023/05/11 06:47:50;;;;;;;187.73;59.00;;;;;;;11.74;100.00;101508.44;5054231;28;20358;-75
2023/05/11 06:50:15;;;;;;;175.38;60.03;;;;;;;11.70;100.00;101509.34;5054365;28;20023;-75
2023/05/11 06:52:41;;;;;;;160.15;59.00;;;;;;;11.73;100.00;101511.91;5053286;28;20108;-75
2023/05/11 06:55:11;;;;;;;169.85;59.65;;;;;;;11.69;100.00;101518.06;5054014;28;20033;-75
2023/05/11 06:57:37;;;;;;;156.27;57.95;;;;;;;11.67;100.00;101519.84;5050548;28;20108;-76
2023/05/11 07:00:02;;;;;;;160.05;58.05;;;;;;;11.64;100.00;101527.72;5052985;28;20445;-76
2023/05/11 07:02:29;;;;;;;149.38;55.80;;;;;;;11.68;100.00;101524.19;5050993;28;20496;-76
2023/05/11 07:04:54;;;;;;;150.82;58.22;;;;;;;11.58;100.00;101523.50;5053689;28;20110;-75
2023/05/11 07:07:19;;;;;;;157.52;58.38;;;;;;;11.62;100.00;101524.31;5050896;28;20469;-75
2023/05/11 07:09:44;;;;;;;165.32;58.67;;;;;;;11.58;100.00;101517.41;5053699;28;20104;-75
2023/05/11 07:12:10;;;;;;;177.00;58.03;;;;;;;11.60;100.00;101526.91;5052931;28;20032;-76
2023/05/11 07:14:35;;;;;;;183.63;59.85;;;;;;;11.59;100.00;101527.81;5052959;28;20123;-76
2023/05/11 07:17:00;;;;;;;188.13;61.20;;;;;;;11.56;100.00;101530.47;5053393;28;20056;-76
2023/05/11 07:19:26;;;;;;;219.13;62.72;;;;;;;11.56;100.00;101529.63;5053091;28;20028;-75
2023/05/11 07:21:51;;;;;;;228.63;63.90;;;;;;;11.51;100.00;101526.22;5049355;28;20037;-75
2023/05/11 07:24:16;;;;;;;226.27;65.03;;;;;;;11.52;100.00;101530.56;5053375;28;20540;-76
2023/05/11 07:26:42;;;;;;;226.68;63.90;;;;;;;11.45;100.00;101528.06;5049620;28;20048;-76
2023/05/11 07:29:07;;;;;;;244.50;66.13;;;;;;;11.46;100.00;101529.75;5051398;28;20425;-76
2023/05/11 07:31:34;;;;;;;235.25;66.00;;;;;;;11.47;100.00;101531.47;5048512;28;20033;-75
2023/05/11 07:34:03;;;;;;;245.18;67.22;;;;;;;11.33;100.00;101512.56;5052448;28;20028;-75
2023/05/11 07:36:29;;;;;;;247.02;64.70;;;;;;;11.56;100.00;101534.84;5051097;28;20049;-75
2023/05/11 07:38:54;;;;;;;243.68;63.58;;;;;;;11.56;100.00;101530.47;5052016;28;20085;-76
2023/05/11 07:41:23;;;;;;;247.57;66.10;;;;;;;11.56;100.00;101535.72;5050552;28;20029;-76
2023/05/11 07:43:48;;;;;;;235.90;62.72;;;;;;;11.56;100.00;101535.72;5052124;28;20388;-76
2023/05/11 07:46:16;;;;;;;265.75;64.75;;;;;;;11.57;100.00;101534.81;5052964;28;20025;-75
2023/05/11 07:48:41;;;;;;;268.25;64.25;;;;;;;11.60;100.00;101537.38;5050435;28;20079;-75
2023/05/11 07:51:06;;;;;;;289.90;68.93;;;;;;;11.64;100.00;101538.19;5053125;28;20384;-75
2023/05/11 07:53:32;;;;;;;271.23;66.63;;;;;;;11.71;100.00;101543.28;5048014;28;20025;-75
2023/05/11 07:55:58;;;;;;;252.85;66.63;;;;;;;11.69;100.00;101545.06;5051854;28;20056;-75
2023/05/11 07:58:23;;;;;;;238.75;66.55;;;;;;;11.68;100.00;101543.34;5051712;28;20090;-75
2023/05/11 08:00:51;;;;;;;254.60;65.00;;;;;;;11.75;100.00;101541.50;5052660;28;20477;-75
2023/05/11 08:03:19;;;;;;;241.15;63.53;;;;;;;11.83;100.00;101547.44;5050935;28;20044;-75
2023/05/11 08:05:44;;;;;;;255.27;66.03;;;;;;;11.89;100.00;101549.97;5047345;28;20041;-76
2023/05/11 08:08:09;;;;;;;239.35;66.38;;;;;;;11.94;100.00;101549.91;5053036;28;20021;-76
2023/05/11 08:10:35;;;;;;;245.57;65.35;;;;;;;12.00;100.00;101551.53;5052147;28;20028;-76
2023/05/11 08:13:00;;;;;;;230.63;61.25;;;;;;;12.00;100.00;101544.56;5051974;28;20028;-76
2023/05/11 08:15:25;;;;;;;214.25;60.60;;;;;;;12.07;100.00;101548.78;5052470;28;20021;-76
2023/05/11 08:17:52;;;;;;;206.23;61.03;;;;;;;12.14;100.00;101552.16;5051641;28;20029;-76
2023/05/11 08:20:18;;;;;;;200.90;59.15;;;;;;;12.16;100.00;101547.75;5052583;28;20067;-76
2023/05/11 08:22:44;;;;;;;203.27;63.13;;;;;;;12.24;100.00;101558.94;5051847;28;20487;-76
2023/05/11 08:25:09;;;;;;;191.95;62.28;;;;;;;12.35;100.00;101554.34;5052373;28;20465;-76
2023/05/11 08:27:34;;;;;;;186.85;61.92;;;;;;;12.56;100.00;101544.38;5052442;28;20086;-76
2023/05/11 08:30:03;;;;;;;191.98;61.63;;;;;;;12.76;100.00;101555.28;5051403;28;20017;-76
2023/05/11 08:32:29;;;;;;;162.55;58.78;;;;;;;12.99;100.00;101553.91;5052498;28;20029;-76
2023/05/11 08:34:54;;;;;;;145.68;57.13;;;;;;;13.24;100.00;101552.50;5052101;28;20105;-76
2023/05/11 08:37:19;;;;;;;153.85;58.55;;;;;;;13.52;100.00;101551.84;5051357;28;20079;-76
2023/05/11 08:39:45;;;;;;;133.02;53.60;;;;;;;13.64;100.00;101548.06;5051987;28;20025;-76
2023/05/11 08:42:14;;;;;;;134.73;53.90;;;;;;;13.60;100.00;101552.50;5052621;28;20032;-76
2023/05/11 08:44:42;;;;;;;127.32;53.10;;;;;;;13.54;100.00;101555.28;5051140;28;20013;-76
2023/05/11 08:47:08;;;;;;;125.82;51.33;;;;;;;13.48;100.00;101551.06;5052175;28;20028;-76
2023/05/11 08:49:34;;;;;;;125.80;53.90;;;;;;;13.43;100.00;101557.28;5052424;28;20036;-76
2023/05/11 08:52:04;;;;;;;114.63;49.85;;;;;;;13.43;100.00;101558.16;5051274;28;20025;-76
2023/05/11 08:54:30;;;;;;;116.82;51.45;;;;;;;13.44;100.00;101559.00;5052312;28;20029;-76
2023/05/11 08:56:57;;;;;;;112.85;49.40;;;;;;;13.43;100.00;101554.66;5051982;28;20021;-76
2023/05/11 08:59:26;;;;;;;106.20;47.55;;;;;;;13.40;100.00;101562.59;5051274;28;20635;-76
2023/05/11 09:01:51;;;;;;;114.03;49.80;;;;;;;13.46;100.00;101565.94;5052134;28;20052;-76
2023/05/11 09:04:18;;;;;;;116.88;52.10;;;;;;;13.53;100.00;101558.78;5051918;28;20092;-76
2023/05/11 09:06:44;;;;;;;119.05;51.15;;;;;;;13.55;100.00;101563.09;5048668;28;20037;-76
2023/05/11 09:09:09;;;;;;;116.47;53.80;;;;;;;13.56;100.00;101563.94;5052203;28;20090;-76
2023/05/11 09:11:35;;;;;;;108.50;51.05;;;;;;;13.52;100.00;101564.94;5051964;28;20116;-76
2023/05/11 09:14:00;;;;;;;115.93;51.08;;;;;;;13.57;100.00;101568.31;5049123;28;20033;-76
2023/05/11 09:16:26;;;;;;;120.13;51.83;;;;;;;13.73;100.00;101560.91;5049661;28;21779;-76
2023/05/11 09:18:52;;;;;;;116.88;51.88;;;;;;;13.94;100.00;101564.75;5046159;28;20908;-76
2023/05/11 09:21:19;;;;;;;126.80;52.22;;;;;;;14.22;100.00;101559.63;5046707;28;20562;-75
2023/05/11 09:23:44;;;;;;;111.82;50.17;;;;;;;14.52;100.00;101561.44;5052868;28;20031;-76
2023/05/11 09:26:14;;;;;;;119.38;53.38;;;;;;;14.77;100.00;101562.50;5052715;28;20388;-75
2023/05/11 09:28:47;;;;;;;109.50;50.40;;;;;;;14.84;100.00;101564.88;5051835;28;20066;-76
2023/05/11 09:31:32;;;;;;;;;;;;;;;14.90;100.00;101574.34;5055763;28;20017;-76
2023/05/11 09:34:09;;;;;;;113.10;51.20;;;;;;;14.64;100.00;101573.34;5054557;28;19924;-76
2023/05/11 09:36:35;;;;;;;102.75;49.72;;;;;;;14.46;100.00;101569.47;5055163;28;20052;-75
2023/05/11 09:39:02;;;;;;;104.47;49.40;;;;;;;14.25;100.00;101567.41;5055165;28;20029;-76
2023/05/11 09:41:27;;;;;;;111.13;53.35;;;;;;;14.08;100.00;101572.25;5054949;28;20025;-75
2023/05/11 09:43:52;;;;;;;106.25;51.47;;;;;;;14.00;100.00;101575.09;5055280;28;20159;-76
2023/05/11 09:46:20;;;;;;;112.75;51.35;;;;;;;14.01;100.00;101577.66;5055477;28;20037;-75
2023/05/11 09:48:58;;;;;;;107.93;49.72;;;;;;;14.04;100.00;101571.47;5054232;28;20033;-75
2023/05/11 09:51:31;;;;;;;102.57;48.13;;;;;;;14.11;100.00;101567.78;5055222;28;20395;-76
2023/05/11 09:53:58;;;;;;;109.55;50.42;;;;;;;14.23;100.00;101570.09;5041859;28;20043;-75
2023/05/11 09:56:42;;;;;;;95.20;46.15;;;;;;;14.38;100.00;101571.41;5054368;28;20372;-75
2023/05/11 09:59:07;;;;;;;103.57;47.92;;;;;;;14.35;100.00;101575.91;5055053;28;20104;-75
2023/05/11 10:01:33;;;;;;;101.07;48.22;;;;;;;14.33;100.00;101577.72;5053870;28;20092;-75
2023/05/11 10:04:01;;;;;;;97.18;47.00;;;;;;;14.26;100.00;101566.53;5050025;28;20401;-75
2023/05/11 10:06:27;;;;;;;97.50;46.58;;;;;;;14.19;100.00;101573.72;5054408;28;20028;-76
2023/05/11 10:08:53;;;;;;;99.90;47.30;;;;;;;14.07;100.00;101575.78;5066961;28;20029;-75
2023/05/11 10:11:22;;;;;;;92.78;45.35;;;;;;;13.89;100.00;101564.00;5053050;28;20495;-75
2023/05/11 10:13:48;;;;;;;100.80;46.83;;;;;;;13.94;100.00;101575.25;5046442;28;20025;-75
2023/05/11 10:16:15;;;;;;;98.72;48.13;;;;;;;13.88;100.00;101575.41;5052005;28;20028;-75
2023/05/11 10:18:42;;;;;;;93.38;45.63;;;;;;;13.81;100.00;101572.94;5054313;28;20028;-75
2023/05/11 10:21:09;;;;;;;97.80;46.85;;;;;;;13.70;100.00;101577.59;5054693;28;20025;-75
2023/05/11 10:23:35;;;;;;;106.80;48.05;;;;;;;13.78;100.00;101575.63;5052418;28;20029;-75
2023/05/11 10:26:03;;;;;;;97.20;45.38;;;;;;;13.98;100.00;101584.75;5054139;28;20032;-75
2023/05/11 10:28:29;;;;;;;99.70;46.90;;;;;;;14.25;100.00;101572.66;5053122;28;20557;-75
2023/05/11 10:30:55;;;;;;;104.63;47.88;;;;;;;14.54;100.00;101579.75;5053455;28;20100;-75
2023/05/11 10:33:22;;;;;;;98.13;46.03;;;;;;;14.80;100.00;101573.75;5054153;28;20044;-75
2023/05/11 10:35:49;;;;;;;95.65;46.47;;;;;;;15.10;100.00;101569.34;5052557;28;20054;-74
2023/05/11 10:38:15;;;;;;;94.53;44.75;;;;;;;15.29;100.00;101577.53;5053765;28;20090;-74
2023/05/11 10:40:44;;;;;;;84.50;42.75;;;;;;;15.19;100.00;101574.31;5054242;28;20021;-74
2023/05/11 10:43:21;;;;;;;88.32;43.28;;;;;;;15.19;100.00;101579.59;5054282;28;20025;-74
2023/05/11 10:46:08;;;;;;;93.13;42.97;;;;;;;15.04;100.00;101572.19;5053309;28;20043;-74
2023/05/11 10:49:01;;;;;;;90.75;44.75;;;;;;;15.14;100.00;101578.88;5054233;28;20036;-74
2023/05/11 10:51:54;;;;;;;93.15;44.13;;;;;;;15.16;100.00;101574.41;5049119;28;20029;-74
2023/05/11 10:54:35;;;;;;;88.85;45.63;;;;;;;15.18;100.00;101569.13;5044097;28;20082;-74
2023/05/11 10:57:36;;;;;;;94.97;44.15;;;;;;;15.40;100.00;101574.56;5053548;28;20365;-74
2023/05/11 11:00:16;;;;;;;94.25;45.78;;;;;;;15.99;100.00;101566.50;5041868;28;20049;-74